sensor_id;sensor_type;location;lat;lon;timestamp;pressure;altitude;pressure_sealevel;temperature;humidity
53546;BME280;39432;51.902;10.844;2023-04-27T00:00:52;99791.09;;;6.54;100.00
53546;BME280;39432;51.902;10.844;2023-04-27T00:03:22;99790.25;;;6.54;100.00
53546;BME280;39432;51.902;10.844;2023-04-27T00:05:53;99793.78;;;5.93;100.00
53546;BME280;39432;51.902;10.844;2023-04-27T00:08:26;99793.75;;;5.99;100.00
53546;BME280;39432;51.902;10.844;2023-04-27T00:10:56;99786.53;;;6.12;100.00
53546;BME280;39432;51.902;10.844;2023-04-27T00:13:25;99796.16;;;5.82;100.00
53546;BME280;39432;51.902;10.844;2023-04-27T00:15:55;99802.69;;;5.75;100.00
53546;BME280;39432;51.902;10.844;2023-04-27T00:18:29;99793.16;;;5.66;100.00
53546;BME280;39432;51.902;10.844;2023-04-27T00:20:59;99791.69;;;5.95;100.00
53546;BME280;39432;51.902;10.844;2023-04-27T00:23:31;99788.66;;;6.28;100.00
53546;BME280;39432;51.902;10.844;2023-04-27T00:26:01;99791.22;;;6.41;100.00
53546;BME280;39432;51.902;10.844;2023-04-27T00:28:31;99788.94;;;6.20;100.00
53546;BME280;39432;51.902;10.844;2023-04-27T00:31:00;99792.56;;;6.14;100.00
53546;BME280;39432;51.902;10.844;2023-04-27T00:33:30;99790.28;;;5.61;100.00
53546;BME280;39432;51.902;10.844;2023-04-27T00:36:01;99798.72;;;5.14;100.00
53546;BME280;39432;51.902;10.844;2023-04-27T00:38:33;99794.00;;;5.03;100.00
53546;BME280;39432;51.902;10.844;2023-04-27T00:41:06;99796.84;;;5.15;100.00
53546;BME280;39432;51.902;10.844;2023-04-27T00:43:41;99797.31;;;5.93;100.00
53546;BME280;39432;51.902;10.844;2023-04-27T00:46:12;99798.28;;;6.05;100.00
53546;BME280;39432;51.902;10.844;2023-04-27T00:48:42;99797.06;;;6.01;100.00
53546;BME280;39432;51.902;10.844;2023-04-27T00:51:12;99788.03;;;6.26;100.00
53546;BME280;39432;51.902;10.844;2023-04-27T00:53:45;99795.03;;;5.90;100.00
53546;BME280;39432;51.902;10.844;2023-04-27T00:56:15;99797.50;;;5.98;100.00
53546;BME280;39432;51.902;10.844;2023-04-27T00:58:45;99801.44;;;5.77;100.00
53546;BME280;39432;51.902;10.844;2023-04-27T01:01:15;99799.28;;;6.29;100.00
53546;BME280;39432;51.902;10.844;2023-04-27T01:03:46;99797.88;;;6.27;100.00
53546;BME280;39432;51.902;10.844;2023-04-27T01:06:16;99791.50;;;6.15;100.00
53546;BME280;39432;51.902;10.844;2023-04-27T01:08:48;99788.19;;;6.13;100.00
53546;BME280;39432;51.902;10.844;2023-04-27T01:11:19;99794.94;;;6.03;100.00
53546;BME280;39432;51.902;10.844;2023-04-27T01:13:50;99792.13;;;6.35;100.00
53546;BME280;39432;51.902;10.844;2023-04-27T01:16:20;99796.13;;;6.32;100.00
53546;BME280;39432;51.902;10.844;2023-04-27T01:18:50;99796.31;;;6.13;100.00
53546;BME280;39432;51.902;10.844;2023-04-27T01:21:22;99800.00;;;6.00;100.00
53546;BME280;39432;51.902;10.844;2023-04-27T01:23:55;99805.50;;;5.62;100.00
53546;BME280;39432;51.902;10.844;2023-04-27T01:26:25;99804.34;;;5.76;100.00
53546;BME280;39432;51.902;10.844;2023-04-27T01:28:55;99796.81;;;5.78;100.00
53546;BME280;39432;51.902;10.844;2023-04-27T01:31:26;99802.81;;;6.12;100.00
53546;BME280;39432;51.902;10.844;2023-04-27T01:33:57;99806.97;;;5.89;100.00
53546;BME280;39432;51.902;10.844;2023-04-27T01:36:26;99803.38;;;5.95;100.00
53546;BME280;39432;51.902;10.844;2023-04-27T01:39:00;99807.16;;;5.88;100.00
53546;BME280;39432;51.902;10.844;2023-04-27T01:41:30;99806.69;;;5.97;100.00
53546;BME280;39432;51.902;10.844;2023-04-27T01:43:59;99804.31;;;5.82;100.00
53546;BME280;39432;51.902;10.844;2023-04-27T01:46:29;99814.13;;;5.84;100.00
53546;BME280;39432;51.902;10.844;2023-04-27T01:48:59;99807.69;;;5.78;100.00
53546;BME280;39432;51.902;10.844;2023-04-27T01:51:29;99813.13;;;5.78;100.00
53546;BME280;39432;51.902;10.844;2023-04-27T01:54:02;99817.75;;;5.71;100.00
53546;BME280;39432;51.902;10.844;2023-04-27T01:56:33;99822.41;;;5.64;100.00
53546;BME280;39432;51.902;10.844;2023-04-27T01:59:02;99827.94;;;5.50;100.00
53546;BME280;39432;51.902;10.844;2023-04-27T02:01:32;99830.66;;;5.50;100.00
53546;BME280;39432;51.902;10.844;2023-04-27T02:04:02;99828.00;;;5.69;100.00
53546;BME280;39432;51.902;10.844;2023-04-27T02:06:32;99837.03;;;5.63;100.00
53546;BME280;39432;51.902;10.844;2023-04-27T02:09:05;99838.09;;;5.62;100.00
53546;BME280;39432;51.902;10.844;2023-04-27T02:11:38;99833.72;;;5.54;100.00
53546;BME280;39432;51.902;10.844;2023-04-27T02:14:08;99831.50;;;5.76;100.00
53546;BME280;39432;51.902;10.844;2023-04-27T02:16:38;99832.22;;;5.90;100.00
53546;BME280;39432;51.902;10.844;2023-04-27T02:19:08;99839.97;;;5.86;100.00
53546;BME280;39432;51.902;10.844;2023-04-27T02:21:38;99840.72;;;6.25;100.00
53546;BME280;39432;51.902;10.844;2023-04-27T02:24:11;99836.56;;;6.22;100.00
53546;BME280;39432;51.902;10.844;2023-04-27T02:26:41;99838.41;;;6.03;100.00
53546;BME280;39432;51.902;10.844;2023-04-27T02:29:11;99845.44;;;6.11;100.00
53546;BME280;39432;51.902;10.844;2023-04-27T02:31:41;99849.16;;;6.17;100.00
53546;BME280;39432;51.902;10.844;2023-04-27T02:34:12;99858.38;;;6.16;100.00
53546;BME280;39432;51.902;10.844;2023-04-27T02:36:41;99859.53;;;6.01;100.00
53546;BME280;39432;51.902;10.844;2023-04-27T02:39:14;99867.34;;;5.91;100.00
53546;BME280;39432;51.902;10.844;2023-04-27T02:41:43;99860.22;;;5.90;100.00
53546;BME280;39432;51.902;10.844;2023-04-27T02:44:14;99868.91;;;6.05;100.00
53546;BME280;39432;51.902;10.844;2023-04-27T02:46:44;99868.06;;;6.05;100.00
53546;BME280;39432;51.902;10.844;2023-04-27T02:49:14;99872.81;;;6.10;100.00
53546;BME280;39432;51.902;10.844;2023-04-27T02:51:44;99871.50;;;5.87;100.00
53546;BME280;39432;51.902;10.844;2023-04-27T02:54:16;99874.50;;;5.79;100.00
53546;BME280;39432;51.902;10.844;2023-04-27T02:56:46;99884.13;;;5.75;100.00
53546;BME280;39432;51.902;10.844;2023-04-27T02:59:16;99879.56;;;5.69;100.00
53546;BME280;39432;51.902;10.844;2023-04-27T03:01:45;99877.03;;;5.74;100.00
53546;BME280;39432;51.902;10.844;2023-04-27T03:04:15;99877.31;;;5.97;100.00
53546;BME280;39432;51.902;10.844;2023-04-27T03:06:47;99876.88;;;6.00;100.00
53546;BME280;39432;51.902;10.844;2023-04-27T03:09:19;99879.88;;;5.86;100.00
53546;BME280;39432;51.902;10.844;2023-04-27T03:11:49;99887.19;;;5.85;100.00
53546;BME280;39432;51.902;10.844;2023-04-27T03:14:19;99882.47;;;6.05;100.00
53546;BME280;39432;51.902;10.844;2023-04-27T03:16:50;99885.53;;;6.16;100.00
53546;BME280;39432;51.902;10.844;2023-04-27T03:19:21;99891.78;;;5.91;100.00
53546;BME280;39432;51.902;10.844;2023-04-27T03:21:51;99890.44;;;6.00;100.00
53546;BME280;39432;51.902;10.844;2023-04-27T03:24:24;99888.78;;;5.68;100.00
53546;BME280;39432;51.902;10.844;2023-04-27T03:26:53;99891.06;;;5.26;100.00
53546;BME280;39432;51.902;10.844;2023-04-27T03:29:24;99895.44;;;5.72;100.00
53546;BME280;39432;51.902;10.844;2023-04-27T03:31:53;99894.91;;;5.88;100.00
53546;BME280;39432;51.902;10.844;2023-04-27T03:34:23;99891.06;;;6.02;100.00
53546;BME280;39432;51.902;10.844;2023-04-27T03:36:53;99885.97;;;6.13;100.00
53546;BME280;39432;51.902;10.844;2023-04-27T03:39:26;99889.91;;;6.17;100.00
53546;BME280;39432;51.902;10.844;2023-04-27T03:41:56;99881.75;;;6.17;100.00
53546;BME280;39432;51.902;10.844;2023-04-27T03:44:26;99885.00;;;6.25;100.00
53546;BME280;39432;51.902;10.844;2023-04-27T03:46:56;99891.72;;;6.23;100.00
53546;BME280;39432;51.902;10.844;2023-04-27T03:49:28;99894.22;;;6.24;100.00
53546;BME280;39432;51.902;10.844;2023-04-27T03:51:58;99887.63;;;6.14;100.00
53546;BME280;39432;51.902;10.844;2023-04-27T03:54:30;99886.84;;;6.06;100.00
53546;BME280;39432;51.902;10.844;2023-04-27T03:57:00;99892.28;;;6.06;100.00
53546;BME280;39432;51.902;10.844;2023-04-27T03:59:30;99891.34;;;6.19;100.00
53546;BME280;39432;51.902;10.844;2023-04-27T04:01:59;99893.34;;;6.05;100.00
53546;BME280;39432;51.902;10.844;2023-04-27T04:04:30;99887.78;;;6.19;100.00
53546;BME280;39432;51.902;10.844;2023-04-27T04:07:01;99890.97;;;6.16;100.00
53546;BME280;39432;51.902;10.844;2023-04-27T04:09:34;99897.88;;;6.37;100.00
53546;BME280;39432;51.902;10.844;2023-04-27T04:12:05;99897.13;;;6.04;100.00
53546;BME280;39432;51.902;10.844;2023-04-27T04:14:35;99897.09;;;6.29;100.00
53546;BME280;39432;51.902;10.844;2023-04-27T04:17:04;99897.56;;;6.26;100.00
53546;BME280;39432;51.902;10.844;2023-04-27T04:19:34;99899.53;;;6.13;100.00
53546;BME280;39432;51.902;10.844;2023-04-27T04:22:04;99901.75;;;5.97;100.00
53546;BME280;39432;51.902;10.844;2023-04-27T04:24:36;99903.38;;;6.30;100.00
53546;BME280;39432;51.902;10.844;2023-04-27T04:27:06;99902.13;;;6.26;100.00
53546;BME280;39432;51.902;10.844;2023-04-27T04:29:36;99905.47;;;6.28;100.00
53546;BME280;39432;51.902;10.844;2023-04-27T04:32:06;99906.38;;;6.22;100.00
53546;BME280;39432;51.902;10.844;2023-04-27T04:34:38;99905.81;;;6.38;100.00
53546;BME280;39432;51.902;10.844;2023-04-27T04:37:08;99903.81;;;6.70;100.00
53546;BME280;39432;51.902;10.844;2023-04-27T04:39:40;99908.72;;;6.37;100.00
53546;BME280;39432;51.902;10.844;2023-04-27T04:42:10;99906.34;;;6.47;100.00
53546;BME280;39432;51.902;10.844;2023-04-27T04:44:40;99901.38;;;6.44;100.00
53546;BME280;39432;51.902;10.844;2023-04-27T04:47:10;99907.19;;;6.47;100.00
53546;BME280;39432;51.902;10.844;2023-04-27T04:49:40;99914.41;;;6.35;100.00
53546;BME280;39432;51.902;10.844;2023-04-27T04:52:10;99913.75;;;6.40;100.00
53546;BME280;39432;51.902;10.844;2023-04-27T04:54:42;99912.06;;;6.14;100.00
53546;BME280;39432;51.902;10.844;2023-04-27T04:57:12;99918.56;;;6.13;100.00
53546;BME280;39432;51.902;10.844;2023-04-27T04:59:42;99913.75;;;6.40;100.00
53546;BME280;39432;51.902;10.844;2023-04-27T05:02:12;99910.41;;;6.38;100.00
53546;BME280;39432;51.902;10.844;2023-04-27T05:04:41;99915.50;;;6.52;100.00
53546;BME280;39432;51.902;10.844;2023-04-27T05:07:11;99919.00;;;6.59;100.00
53546;BME280;39432;51.902;10.844;2023-04-27T05:09:51;99928.84;;;6.79;100.00
53546;BME280;39432;51.902;10.844;2023-04-27T05:12:21;99934.66;;;7.01;100.00
53546;BME280;39432;51.902;10.844;2023-04-27T05:14:51;99926.81;;;6.93;100.00
53546;BME280;39432;51.902;10.844;2023-04-27T05:17:21;99927.31;;;6.15;100.00
53546;BME280;39432;51.902;10.844;2023-04-27T05:19:51;99933.03;;;6.31;100.00
53546;BME280;39432;51.902;10.844;2023-04-27T05:22:21;99939.38;;;6.69;100.00
53546;BME280;39432;51.902;10.844;2023-04-27T05:24:53;99942.25;;;6.74;100.00
53546;BME280;39432;51.902;10.844;2023-04-27T05:27:23;99937.16;;;6.84;100.00
53546;BME280;39432;51.902;10.844;2023-04-27T05:29:52;99932.78;;;7.01;100.00
53546;BME280;39432;51.902;10.844;2023-04-27T05:32:22;99938.69;;;6.98;100.00
53546;BME280;39432;51.902;10.844;2023-04-27T05:34:52;99937.59;;;7.18;100.00
53546;BME280;39432;51.902;10.844;2023-04-27T05:37:22;99940.19;;;7.12;100.00
53546;BME280;39432;51.902;10.844;2023-04-27T05:39:54;99947.59;;;6.87;100.00
53546;BME280;39432;51.902;10.844;2023-04-27T05:42:23;99947.16;;;7.57;100.00
53546;BME280;39432;51.902;10.844;2023-04-27T05:44:53;99957.13;;;7.63;100.00
53546;BME280;39432;51.902;10.844;2023-04-27T05:47:23;99956.44;;;7.86;100.00
53546;BME280;39432;51.902;10.844;2023-04-27T05:49:53;99961.66;;;7.69;100.00
53546;BME280;39432;51.902;10.844;2023-04-27T05:52:23;99956.78;;;7.59;100.00
53546;BME280;39432;51.902;10.844;2023-04-27T05:54:59;99956.81;;;7.23;100.00
53546;BME280;39432;51.902;10.844;2023-04-27T05:57:29;99967.25;;;7.26;100.00
53546;BME280;39432;51.902;10.844;2023-04-27T05:59:59;99968.44;;;7.30;100.00
53546;BME280;39432;51.902;10.844;2023-04-27T06:02:37;99964.03;;;7.65;100.00
53546;BME280;39432;51.902;10.844;2023-04-27T06:05:08;99974.19;;;7.40;100.00
53546;BME280;39432;51.902;10.844;2023-04-27T06:07:38;99973.81;;;7.55;100.00
53546;BME280;39432;51.902;10.844;2023-04-27T06:10:12;99971.75;;;7.99;100.00
53546;BME280;39432;51.902;10.844;2023-04-27T06:12:42;99971.09;;;8.15;100.00
53546;BME280;39432;51.902;10.844;2023-04-27T06:15:12;99973.22;;;7.83;100.00
53546;BME280;39432;51.902;10.844;2023-04-27T06:17:42;99972.41;;;7.82;100.00
53546;BME280;39432;51.902;10.844;2023-04-27T06:20:12;99978.34;;;7.06;100.00
53546;BME280;39432;51.902;10.844;2023-04-27T06:22:42;99986.81;;;7.34;100.00
53546;BME280;39432;51.902;10.844;2023-04-27T06:25:15;99985.31;;;7.20;100.00
53546;BME280;39432;51.902;10.844;2023-04-27T06:27:44;99988.53;;;7.65;100.00
53546;BME280;39432;51.902;10.844;2023-04-27T06:30:15;99990.22;;;7.48;100.00
53546;BME280;39432;51.902;10.844;2023-04-27T06:32:44;99986.94;;;7.76;100.00
53546;BME280;39432;51.902;10.844;2023-04-27T06:35:15;99986.28;;;8.34;100.00
53546;BME280;39432;51.902;10.844;2023-04-27T06:37:45;99986.94;;;9.42;100.00
53546;BME280;39432;51.902;10.844;2023-04-27T06:40:17;99979.31;;;10.92;100.00
53546;BME280;39432;51.902;10.844;2023-04-27T06:42:47;99986.72;;;9.32;100.00
53546;BME280;39432;51.902;10.844;2023-04-27T06:45:17;99987.22;;;8.82;100.00
53546;BME280;39432;51.902;10.844;2023-04-27T06:47:46;99997.75;;;7.83;100.00
53546;BME280;39432;51.902;10.844;2023-04-27T06:50:16;100001.97;;;7.97;100.00
53546;BME280;39432;51.902;10.844;2023-04-27T06:52:46;100011.66;;;7.93;100.00
53546;BME280;39432;51.902;10.844;2023-04-27T06:55:18;100002.31;;;7.71;100.00
53546;BME280;39432;51.902;10.844;2023-04-27T06:57:48;100000.53;;;9.13;100.00
53546;BME280;39432;51.902;10.844;2023-04-27T07:00:18;99995.50;;;9.86;100.00
53546;BME280;39432;51.902;10.844;2023-04-27T07:02:48;99986.91;;;10.22;100.00
53546;BME280;39432;51.902;10.844;2023-04-27T07:05:18;99997.88;;;9.42;96.97
53546;BME280;39432;51.902;10.844;2023-04-27T07:07:48;99999.75;;;9.53;95.79
53546;BME280;39432;51.902;10.844;2023-04-27T07:10:21;100005.63;;;8.86;97.01
53546;BME280;39432;51.902;10.844;2023-04-27T07:12:50;100007.88;;;8.78;98.36
53546;BME280;39432;51.902;10.844;2023-04-27T07:15:20;100006.38;;;8.40;97.03
53546;BME280;39432;51.902;10.844;2023-04-27T07:17:50;100004.31;;;8.89;97.29
53546;BME280;39432;51.902;10.844;2023-04-27T07:20:20;100008.69;;;8.25;95.20
53546;BME280;39432;51.902;10.844;2023-04-27T07:22:50;100016.59;;;8.56;93.41
53546;BME280;39432;51.902;10.844;2023-04-27T07:25:22;100018.44;;;8.86;94.64
53546;BME280;39432;51.902;10.844;2023-04-27T07:27:52;100003.91;;;9.96;86.86
53546;BME280;39432;51.902;10.844;2023-04-27T07:30:22;100005.78;;;9.55;86.66
53546;BME280;39432;51.902;10.844;2023-04-27T07:32:52;100007.88;;;10.05;83.47
53546;BME280;39432;51.902;10.844;2023-04-27T07:35:22;100002.88;;;11.70;79.08
53546;BME280;39432;51.902;10.844;2023-04-27T07:37:52;100014.06;;;10.12;77.02
53546;BME280;39432;51.902;10.844;2023-04-27T07:40:25;100011.91;;;9.10;82.02
53546;BME280;39432;51.902;10.844;2023-04-27T07:42:54;100011.09;;;8.75;85.82
53546;BME280;39432;51.902;10.844;2023-04-27T07:45:25;100012.50;;;8.89;86.64
53546;BME280;39432;51.902;10.844;2023-04-27T07:48:00;100003.19;;;10.29;84.68
53546;BME280;39432;51.902;10.844;2023-04-27T07:50:30;99998.22;;;10.76;78.85
53546;BME280;39432;51.902;10.844;2023-04-27T07:53:00;100000.50;;;11.79;71.59
53546;BME280;39432;51.902;10.844;2023-04-27T07:55:32;100002.84;;;10.42;69.22
53546;BME280;39432;51.902;10.844;2023-04-27T07:58:03;99994.31;;;11.45;68.17
53546;BME280;39432;51.902;10.844;2023-04-27T08:00:33;99993.59;;;12.20;65.22
53546;BME280;39432;51.902;10.844;2023-04-27T08:03:03;100000.13;;;11.48;66.43
53546;BME280;39432;51.902;10.844;2023-04-27T08:05:34;100002.34;;;11.73;65.08
53546;BME280;39432;51.902;10.844;2023-04-27T08:08:04;100007.53;;;10.75;65.99
53546;BME280;39432;51.902;10.844;2023-04-27T08:10:37;100006.13;;;10.56;65.36
53546;BME280;39432;51.902;10.844;2023-04-27T08:13:08;100005.34;;;11.11;61.66
53546;BME280;39432;51.902;10.844;2023-04-27T08:15:38;100009.53;;;10.80;61.75
53546;BME280;39432;51.902;10.844;2023-04-27T08:18:08;100004.84;;;10.30;63.32
53546;BME280;39432;51.902;10.844;2023-04-27T08:20:37;100012.81;;;9.51;66.41
53546;BME280;39432;51.902;10.844;2023-04-27T08:23:07;100014.94;;;9.49;68.40
53546;BME280;39432;51.902;10.844;2023-04-27T08:25:39;100007.50;;;9.85;67.59
53546;BME280;39432;51.902;10.844;2023-04-27T08:28:09;100005.75;;;10.36;69.01
53546;BME280;39432;51.902;10.844;2023-04-27T08:30:40;100007.50;;;10.42;66.55
53546;BME280;39432;51.902;10.844;2023-04-27T08:33:10;100001.56;;;10.45;66.70
53546;BME280;39432;51.902;10.844;2023-04-27T08:35:40;100008.66;;;10.29;69.03
53546;BME280;39432;51.902;10.844;2023-04-27T08:38:10;100012.19;;;9.61;70.68
53546;BME280;39432;51.902;10.844;2023-04-27T08:40:45;100012.81;;;9.51;70.69
53546;BME280;39432;51.902;10.844;2023-04-27T08:43:15;100009.06;;;9.81;69.17
53546;BME280;39432;51.902;10.844;2023-04-27T08:45:47;100001.94;;;10.08;64.24
53546;BME280;39432;51.902;10.844;2023-04-27T08:48:18;100007.38;;;9.51;63.04
53546;BME280;39432;51.902;10.844;2023-04-27T08:50:49;100006.28;;;9.52;63.46
53546;BME280;39432;51.902;10.844;2023-04-27T08:53:20;100002.38;;;9.88;64.02
53546;BME280;39432;51.902;10.844;2023-04-27T08:55:52;99994.31;;;10.10;64.58
53546;BME280;39432;51.902;10.844;2023-04-27T08:58:34;100001.44;;;9.31;65.39
53546;BME280;39432;51.902;10.844;2023-04-27T09:01:05;99989.75;;;10.27;66.37
53546;BME280;39432;51.902;10.844;2023-04-27T09:03:36;99987.44;;;10.36;66.15
53546;BME280;39432;51.902;10.844;2023-04-27T09:06:07;100006.66;;;9.32;64.45
53546;BME280;39432;51.902;10.844;2023-04-27T09:08:41;99988.72;;;9.48;64.91
53546;BME280;39432;51.902;10.844;2023-04-27T09:11:15;99994.19;;;9.48;62.22
53546;BME280;39432;51.902;10.844;2023-04-27T09:13:44;99990.22;;;9.56;61.70
53546;BME280;39432;51.902;10.844;2023-04-27T09:16:14;99989.44;;;10.58;60.80
53546;BME280;39432;51.902;10.844;2023-04-27T09:18:44;99992.56;;;10.04;59.59
53546;BME280;39432;51.902;10.844;2023-04-27T09:21:21;99985.66;;;9.85;61.54
53546;BME280;39432;51.902;10.844;2023-04-27T09:23:52;99984.88;;;10.01;62.82
53546;BME280;39432;51.902;10.844;2023-04-27T09:26:26;99987.25;;;9.97;61.58
53546;BME280;39432;51.902;10.844;2023-04-27T09:28:57;99983.47;;;10.15;61.41
53546;BME280;39432;51.902;10.844;2023-04-27T09:31:30;99981.97;;;10.53;60.77
53546;BME280;39432;51.902;10.844;2023-04-27T09:34:01;99992.75;;;10.76;62.28
53546;BME280;39432;51.902;10.844;2023-04-27T09:36:31;99985.22;;;10.50;60.15
53546;BME280;39432;51.902;10.844;2023-04-27T09:39:02;99983.16;;;10.57;60.02
53546;BME280;39432;51.902;10.844;2023-04-27T09:41:38;99980.56;;;10.34;58.76
53546;BME280;39432;51.902;10.844;2023-04-27T09:44:08;99974.13;;;10.11;59.14
53546;BME280;39432;51.902;10.844;2023-04-27T09:46:38;99975.81;;;9.72;57.85
53546;BME280;39432;51.902;10.844;2023-04-27T09:49:10;99978.69;;;10.22;58.48
53546;BME280;39432;51.902;10.844;2023-04-27T09:51:41;99982.25;;;10.23;58.17
53546;BME280;39432;51.902;10.844;2023-04-27T09:54:12;99970.38;;;10.46;58.21
53546;BME280;39432;51.902;10.844;2023-04-27T09:56:51;99968.13;;;9.97;56.43
53546;BME280;39432;51.902;10.844;2023-04-27T09:59:35;99966.56;;;10.01;53.91
53546;BME280;39432;51.902;10.844;2023-04-27T10:02:11;99966.06;;;10.33;54.79
53546;BME280;39432;51.902;10.844;2023-04-27T10:05:09;99958.97;;;10.88;54.57
53546;BME280;39432;51.902;10.844;2023-04-27T10:07:43;99959.44;;;10.63;56.37
53546;BME280;39432;51.902;10.844;2023-04-27T10:10:15;99955.56;;;10.97;55.15
53546;BME280;39432;51.902;10.844;2023-04-27T10:12:59;99956.41;;;10.98;54.13
53546;BME280;39432;51.902;10.844;2023-04-27T10:15:29;99960.25;;;10.63;54.98
53546;BME280;39432;51.902;10.844;2023-04-27T10:18:03;99948.31;;;10.69;55.35
53546;BME280;39432;51.902;10.844;2023-04-27T10:20:35;99949.13;;;10.87;57.20
53546;BME280;39432;51.902;10.844;2023-04-27T10:23:06;99955.88;;;10.79;58.23
53546;BME280;39432;51.902;10.844;2023-04-27T10:25:37;99956.91;;;10.95;57.60
53546;BME280;39432;51.902;10.844;2023-04-27T10:28:15;99956.75;;;11.01;57.40
53546;BME280;39432;51.902;10.844;2023-04-27T10:30:47;99952.63;;;10.99;57.39
53546;BME280;39432;51.902;10.844;2023-04-27T10:33:18;99951.81;;;11.42;57.37
53546;BME280;39432;51.902;10.844;2023-04-27T10:35:55;99952.25;;;11.12;55.31
53546;BME280;39432;51.902;10.844;2023-04-27T10:38:27;99961.31;;;11.34;53.59
53546;BME280;39432;51.902;10.844;2023-04-27T10:41:00;99967.19;;;11.04;52.03
53546;BME280;39432;51.902;10.844;2023-04-27T10:43:34;99962.09;;;10.74;51.27
53546;BME280;39432;51.902;10.844;2023-04-27T10:46:09;99955.88;;;11.18;50.16
53546;BME280;39432;51.902;10.844;2023-04-27T10:48:40;99952.31;;;11.39;49.27
53546;BME280;39432;51.902;10.844;2023-04-27T10:51:14;99958.56;;;11.34;51.19
53546;BME280;39432;51.902;10.844;2023-04-27T10:53:44;99959.75;;;11.00;52.69
53546;BME280;39432;51.902;10.844;2023-04-27T10:56:14;99960.47;;;11.34;54.65
53546;BME280;39432;51.902;10.844;2023-04-27T10:58:46;99966.53;;;10.80;53.89
53546;BME280;39432;51.902;10.844;2023-04-27T11:01:23;99950.16;;;11.63;53.96
53546;BME280;39432;51.902;10.844;2023-04-27T11:03:56;99949.84;;;11.38;53.23
53546;BME280;39432;51.902;10.844;2023-04-27T11:06:27;99950.09;;;11.36;51.90
53546;BME280;39432;51.902;10.844;2023-04-27T11:08:58;99953.91;;;11.57;51.89
53546;BME280;39432;51.902;10.844;2023-04-27T11:11:28;99955.97;;;11.45;49.61
53546;BME280;39432;51.902;10.844;2023-04-27T11:14:01;99956.66;;;11.35;48.95
53546;BME280;39432;51.902;10.844;2023-04-27T11:16:30;99959.19;;;11.20;47.91
53546;BME280;39432;51.902;10.844;2023-04-27T11:19:04;99951.97;;;11.79;47.03
53546;BME280;39432;51.902;10.844;2023-04-27T11:21:33;99952.75;;;11.97;47.94
53546;BME280;39432;51.902;10.844;2023-04-27T11:24:04;99952.28;;;12.05;47.24
53546;BME280;39432;51.902;10.844;2023-04-27T11:26:34;99952.88;;;11.63;47.18
53546;BME280;39432;51.902;10.844;2023-04-27T11:29:08;99951.19;;;12.06;47.60
53546;BME280;39432;51.902;10.844;2023-04-27T11:31:41;99948.69;;;11.77;49.50
53546;BME280;39432;51.902;10.844;2023-04-27T11:34:15;99947.03;;;11.76;48.53
53546;BME280;39432;51.902;10.844;2023-04-27T11:36:55;99948.63;;;11.94;47.91
53546;BME280;39432;51.902;10.844;2023-04-27T11:39:44;99942.09;;;12.27;46.97
53546;BME280;39432;51.902;10.844;2023-04-27T11:42:15;99940.84;;;12.13;49.12
53546;BME280;39432;51.902;10.844;2023-04-27T11:44:56;99947.09;;;11.59;49.92
53546;BME280;39432;51.902;10.844;2023-04-27T11:47:28;99950.97;;;11.20;50.13
53546;BME280;39432;51.902;10.844;2023-04-27T11:50:01;99940.97;;;11.52;50.09
53546;BME280;39432;51.902;10.844;2023-04-27T11:52:32;99945.94;;;11.77;49.67
53546;BME280;39432;51.902;10.844;2023-04-27T11:55:03;99951.63;;;11.93;50.09
53546;BME280;39432;51.902;10.844;2023-04-27T11:57:35;99945.97;;;12.31;48.47
53546;BME280;39432;51.902;10.844;2023-04-27T12:00:08;99949.34;;;12.11;48.67
53546;BME280;39432;51.902;10.844;2023-04-27T12:02:42;99951.03;;;11.25;49.28
53546;BME280;39432;51.902;10.844;2023-04-27T12:05:12;99956.78;;;10.51;50.32
53546;BME280;39432;51.902;10.844;2023-04-27T12:07:43;99957.69;;;11.51;50.09
53546;BME280;39432;51.902;10.844;2023-04-27T12:10:13;99945.94;;;11.77;48.92
53546;BME280;39432;51.902;10.844;2023-04-27T12:12:42;99950.47;;;11.45;47.97
53546;BME280;39432;51.902;10.844;2023-04-27T12:15:15;99949.81;;;12.35;48.17
53546;BME280;39432;51.902;10.844;2023-04-27T12:17:45;99953.31;;;11.99;48.19
53546;BME280;39432;51.902;10.844;2023-04-27T12:20:15;99940.41;;;12.53;47.38
53546;BME280;39432;51.902;10.844;2023-04-27T12:22:44;99940.94;;;12.23;47.82
53546;BME280;39432;51.902;10.844;2023-04-27T12:25:14;99939.72;;;12.09;49.62
53546;BME280;39432;51.902;10.844;2023-04-27T12:27:45;99939.03;;;12.56;48.75
53546;BME280;39432;51.902;10.844;2023-04-27T12:30:19;99939.56;;;12.95;48.39
53546;BME280;39432;51.902;10.844;2023-04-27T12:32:49;99931.06;;;12.91;47.93
53546;BME280;39432;51.902;10.844;2023-04-27T12:35:19;99935.84;;;12.69;46.19
53546;BME280;39432;51.902;10.844;2023-04-27T12:37:49;99926.47;;;12.01;48.14
53546;BME280;39432;51.902;10.844;2023-04-27T12:40:19;99926.69;;;13.01;48.02
53546;BME280;39432;51.902;10.844;2023-04-27T12:42:49;99924.84;;;12.64;46.82
53546;BME280;39432;51.902;10.844;2023-04-27T12:45:21;99923.00;;;12.43;46.33
53546;BME280;39432;51.902;10.844;2023-04-27T12:47:51;99934.56;;;12.18;47.74
53546;BME280;39432;51.902;10.844;2023-04-27T12:50:30;99932.91;;;12.44;47.04
53546;BME280;39432;51.902;10.844;2023-04-27T12:53:00;99932.53;;;13.09;47.70
53546;BME280;39432;51.902;10.844;2023-04-27T12:55:30;99928.34;;;12.59;46.56
53546;BME280;39432;51.902;10.844;2023-04-27T12:58:01;99936.59;;;12.27;46.25
53546;BME280;39432;51.902;10.844;2023-04-27T13:00:33;99936.00;;;12.57;46.21
53546;BME280;39432;51.902;10.844;2023-04-27T13:03:03;99937.19;;;12.34;46.56
53546;BME280;39432;51.902;10.844;2023-04-27T13:05:33;99923.38;;;12.93;46.29
53546;BME280;39432;51.902;10.844;2023-04-27T13:08:04;99921.97;;;12.91;46.75
53546;BME280;39432;51.902;10.844;2023-04-27T13:10:34;99921.78;;;11.52;47.77